Time;durP1;ratioP1;P1;durP2;ratioP2;P2;SDS_P1;SDS_P2;PMS_P1;PMS_P2;Temp;Humidity;BMP_temperature;BMP_pressure;BME280_temperature;BME280_humidity;BME280_pressure;Samples;Min_cycle;Max_cycle;Signal;HPM_P1;HPM_P2
2023/08/26 00:01:19;;;;;;;18.50;16.50;;;;;;;18.69;100.00;100872.66;5233498;28;20021;-73
2023/08/26 00:03:50;;;;;;;20.47;15.57;;;;;;;18.76;100.00;100876.41;5232874;28;20099;-74
2023/08/26 00:06:21;;;;;;;19.60;14.03;;;;;;;18.79;100.00;100877.91;5232745;28;20104;-73
2023/08/26 00:08:52;;;;;;;16.33;11.70;;;;;;;18.62;100.00;100864.44;5233888;28;20498;-73
2023/08/26 00:11:24;;;;;;;14.10;10.83;;;;;;;18.61;100.00;100868.91;5214497;28;20029;-73
2023/08/26 00:13:55;;;;;;;14.80;8.80;;;;;;;18.53;100.00;100860.84;5233317;28;20469;-73
2023/08/26 00:16:27;;;;;;;11.03;8.37;;;;;;;18.40;100.00;100860.31;5215284;28;20041;-73
2023/08/26 00:19:02;;;;;;;11.17;7.30;;;;;;;18.50;100.00;100863.78;5214629;28;20468;-73
2023/08/26 00:21:33;;;;;;;11.33;7.90;;;;;;;18.37;100.00;100861.44;5215785;28;20033;-73
2023/08/26 00:24:04;;;;;;;10.97;7.53;;;;;;;18.40;100.00;100857.69;5240748;28;20480;-74
2023/08/26 00:26:36;;;;;;;12.80;7.37;;;;;;;18.40;100.00;100865.63;5238085;28;20044;-73
2023/08/26 00:29:07;;;;;;;11.47;7.73;;;;;;;18.35;100.00;100871.34;5210899;28;20488;-73
2023/08/26 00:31:38;;;;;;;11.27;7.37;;;;;;;18.34;100.00;100867.88;5227119;28;20032;-73
2023/08/26 00:34:10;;;;;;;11.43;7.80;;;;;;;18.34;100.00;100867.03;5231701;28;20116;-73
2023/08/26 00:36:41;;;;;;;15.83;9.00;;;;;;;18.20;100.00;100866.50;5231929;28;20123;-73
2023/08/26 00:39:12;;;;;;;12.20;6.27;;;;;;;18.14;100.00;100857.28;5214333;28;20060;-73
2023/08/26 00:41:44;;;;;;;10.60;6.90;;;;;;;18.10;100.00;100868.31;5232265;28;20651;-73
2023/08/26 00:44:15;;;;;;;10.70;5.87;;;;;;;18.02;100.00;100858.38;5214743;28;20044;-73
2023/08/26 00:46:46;;;;;;;11.17;5.23;;;;;;;18.00;100.00;100861.19;5233270;28;20442;-73
2023/08/26 00:49:18;;;;;;;12.53;6.07;;;;;;;17.87;100.00;100861.44;5237393;28;20064;-73
2023/08/26 00:51:50;;;;;;;11.63;5.57;;;;;;;17.84;100.00;100876.81;5223385;28;20030;-73
2023/08/26 00:54:22;;;;;;;13.77;5.50;;;;;;;17.85;100.00;100866.09;5232634;28;20013;-73
2023/08/26 00:56:54;;;;;;;13.30;5.00;;;;;;;17.68;100.00;100872.88;5233138;28;20084;-73
2023/08/26 00:59:26;;;;;;;7.47;4.40;;;;;;;17.62;100.00;100876.94;5232874;28;20051;-73
2023/08/26 01:01:58;;;;;;;7.63;4.20;;;;;;;17.60;100.00;100870.94;5233225;28;20104;-73
2023/08/26 01:04:30;;;;;;;9.73;4.33;;;;;;;17.45;100.00;100872.31;5232082;28;20041;-73
2023/08/26 01:07:02;;;;;;;7.40;3.67;;;;;;;17.40;100.00;100870.91;5232922;28;20075;-73
2023/08/26 01:09:34;;;;;;;8.70;3.63;;;;;;;17.34;100.00;100876.75;5272377;22;20069;-73
2023/08/26 01:12:31;;;;;;;10.80;3.97;;;;;;;17.53;100.00;100880.41;5232786;28;20439;-73
2023/08/26 01:15:09;;;;;;;8.47;3.57;;;;;;;17.28;100.00;100866.69;5213719;28;20475;-73
2023/08/26 01:17:41;;;;;;;9.10;3.17;;;;;;;17.09;100.00;100873.56;5214561;28;20026;-73
2023/08/26 01:20:14;;;;;;;9.20;3.00;;;;;;;17.18;100.00;100877.25;5231640;28;20029;-73
2023/08/26 01:22:48;;;;;;;6.73;3.70;;;;;;;17.05;100.00;100877.47;5232232;28;20032;-74
2023/08/26 01:25:20;;;;;;;;;;;;;;;17.56;100.00;100881.94;5232156;28;20022;-73
2023/08/26 01:27:52;;;;;;;6.13;3.47;;;;;;;16.98;100.00;100876.34;5232141;28;20378;-73
2023/08/26 01:30:27;;;;;;;9.37;3.20;;;;;;;16.98;100.00;100885.13;5232054;28;20152;-73
2023/08/26 01:33:03;;;;;;;6.77;3.07;;;;;;;16.96;100.00;100879.13;5232619;28;20029;-73
2023/08/26 01:35:42;;;;;;;5.70;3.50;;;;;;;16.92;100.00;100883.84;5213414;28;20025;-73
2023/08/26 01:38:16;;;;;;;12.53;3.20;;;;;;;16.81;100.00;100886.56;5232186;28;20031;-73
2023/08/26 01:40:53;;;;;;;7.40;3.08;;;;;;;16.93;100.00;100887.31;5214295;28;20059;-73
2023/08/26 01:43:25;;;;;;;7.97;3.30;;;;;;;16.75;100.00;100879.16;5213907;28;20079;-73
2023/08/26 01:45:57;;;;;;;6.73;2.87;;;;;;;16.72;100.00;100882.06;5231961;28;20029;-73
2023/08/26 01:48:28;;;;;;;7.87;3.13;;;;;;;16.66;100.00;100875.50;5232062;28;20101;-73
2023/08/26 01:50:59;;;;;;;10.07;3.37;;;;;;;16.72;100.00;100877.59;5213380;28;20071;-73
2023/08/26 01:53:30;;;;;;;5.60;2.37;;;;;;;16.60;100.00;100882.13;5213447;28;20416;-74
2023/08/26 01:56:02;;;;;;;7.10;3.17;;;;;;;16.61;100.00;100893.56;5231754;28;20033;-73
2023/08/26 01:58:33;;;;;;;4.90;2.57;;;;;;;16.63;100.00;100889.84;5232878;28;20887;-73
2023/08/26 02:01:06;;;;;;;10.13;2.57;;;;;;;16.54;100.00;100888.81;5230978;28;20071;-73
2023/08/26 02:03:37;;;;;;;6.70;2.47;;;;;;;16.47;100.00;100884.16;5231443;28;20076;-73
2023/08/26 02:06:09;;;;;;;7.83;3.60;;;;;;;16.43;100.00;100879.13;5231464;28;20468;-74
2023/08/26 02:08:40;;;;;;;9.93;2.33;;;;;;;16.36;100.00;100885.06;5232155;28;20503;-73
2023/08/26 02:11:11;;;;;;;6.53;2.60;;;;;;;16.33;100.00;100872.94;5213782;28;20042;-73
2023/08/26 02:13:43;;;;;;;7.83;2.80;;;;;;;16.29;100.00;100876.81;5232055;28;20044;-73
2023/08/26 02:16:14;;;;;;;9.77;3.03;;;;;;;16.21;100.00;100878.28;5232013;28;20040;-73
2023/08/26 02:18:45;;;;;;;11.60;4.03;;;;;;;16.26;100.00;100879.72;5240915;28;20029;-73
2023/08/26 02:21:16;;;;;;;8.47;2.73;;;;;;;16.29;100.00;100871.53;5235922;28;20025;-73
2023/08/26 02:23:48;;;;;;;6.77;2.83;;;;;;;16.20;100.00;100879.25;5232046;28;20037;-73
2023/08/26 02:26:19;;;;;;;9.80;2.50;;;;;;;16.16;100.00;100882.28;5214266;28;20026;-73
2023/08/26 02:28:50;;;;;;;8.70;2.43;;;;;;;15.94;100.00;100858.47;5231567;28;20391;-73
2023/08/26 02:31:22;;;;;;;12.63;3.20;;;;;;;16.09;100.00;100887.25;5213272;28;20160;-73
2023/08/26 02:33:53;;;;;;;9.30;2.47;;;;;;;16.13;100.00;100872.81;5215177;28;20039;-73
2023/08/26 02:36:24;;;;;;;9.17;2.80;;;;;;;16.02;100.00;100875.50;5215643;28;20044;-73
2023/08/26 02:38:56;;;;;;;6.30;1.77;;;;;;;15.98;100.00;100885.47;5234752;28;20037;-72
2023/08/26 02:41:27;;;;;;;9.33;2.93;;;;;;;16.05;100.00;100885.81;5235241;28;20073;-72
2023/08/26 02:43:58;;;;;;;11.03;3.50;;;;;;;16.11;100.00;100877.38;5234884;28;20044;-72
2023/08/26 02:46:29;;;;;;;7.33;2.40;;;;;;;16.03;100.00;100874.53;5235440;28;20068;-72
2023/08/26 02:49:01;;;;;;;6.07;2.43;;;;;;;15.92;100.00;100865.66;5202329;28;20033;-73
2023/08/26 02:51:32;;;;;;;6.67;2.80;;;;;;;15.94;100.00;100876.09;5235635;28;20037;-73
2023/08/26 02:54:03;;;;;;;8.30;3.03;;;;;;;15.89;100.00;100858.00;5235529;28;20036;-73
2023/08/26 02:56:35;;;;;;;9.83;2.50;;;;;;;15.78;100.00;100858.88;5217557;28;20033;-73
2023/08/26 02:59:06;;;;;;;8.70;2.50;;;;;;;15.82;100.00;100859.47;5216081;28;20129;-73
2023/08/26 03:01:38;;;;;;;8.40;2.63;;;;;;;15.90;100.00;100866.78;5208705;28;20063;-72
2023/08/26 03:04:09;;;;;;;5.27;2.67;;;;;;;15.62;100.00;100858.47;5233998;28;20517;-73
2023/08/26 03:06:41;;;;;;;7.63;2.63;;;;;;;15.80;100.00;100866.66;5224141;28;20037;-72
2023/08/26 03:09:12;;;;;;;7.53;2.50;;;;;;;15.71;100.00;100870.91;5231966;28;20025;-73
2023/08/26 03:11:43;;;;;;;6.33;2.97;;;;;;;15.43;100.00;100868.69;5235314;28;20033;-73
2023/08/26 03:14:15;;;;;;;7.43;2.80;;;;;;;15.65;100.00;100864.34;5216954;28;20595;-72
2023/08/26 03:16:46;;;;;;;4.87;2.40;;;;;;;15.65;100.00;100874.06;5217612;28;20061;-73
2023/08/26 03:19:18;;;;;;;8.20;2.83;;;;;;;15.67;100.00;100869.50;5233549;28;20040;-73
2023/08/26 03:21:49;;;;;;;7.13;3.43;;;;;;;15.63;100.00;100866.25;5234772;28;20480;-73
2023/08/26 03:24:20;;;;;;;8.97;2.37;;;;;;;15.52;100.00;100861.00;5234800;28;20444;-73
2023/08/26 03:26:52;;;;;;;8.33;3.93;;;;;;;15.53;100.00;100882.03;5235354;28;20048;-73
2023/08/26 03:29:23;;;;;;;7.43;2.50;;;;;;;15.48;100.00;100868.34;5234132;28;20037;-72
2023/08/26 03:31:54;;;;;;;9.97;2.50;;;;;;;15.56;100.00;100875.63;5216800;28;20464;-72
2023/08/26 03:34:26;;;;;;;7.00;2.43;;;;;;;15.55;100.00;100871.34;5233649;28;20021;-72
2023/08/26 03:36:57;;;;;;;7.37;2.77;;;;;;;15.55;100.00;100874.78;5234394;28;20041;-72
2023/08/26 03:39:28;;;;;;;6.27;2.10;;;;;;;15.35;100.00;100879.88;5234264;28;20112;-72
2023/08/26 03:42:00;;;;;;;8.43;2.67;;;;;;;15.40;100.00;100882.16;5234711;28;20029;-72
2023/08/26 03:44:31;;;;;;;8.17;3.33;;;;;;;15.52;100.00;100884.75;5234221;28;20087;-72
2023/08/26 03:47:02;;;;;;;7.23;2.20;;;;;;;15.46;100.00;100886.91;5233548;28;20030;-73
2023/08/26 03:49:34;;;;;;;9.47;2.33;;;;;;;15.37;100.00;100885.03;5233482;28;20091;-72
2023/08/26 03:52:05;;;;;;;7.80;2.63;;;;;;;15.09;100.00;100888.06;5216142;28;20026;-71
2023/08/26 03:54:36;;;;;;;6.23;3.67;;;;;;;15.02;100.00;100888.66;5234505;28;20048;-72
2023/08/26 03:57:07;;;;;;;7.17;2.63;;;;;;;15.11;100.00;100883.50;5236215;28;20030;-72
2023/08/26 03:59:39;;;;;;;7.03;3.07;;;;;;;15.10;100.00;100886.25;5227190;28;20029;-72
2023/08/26 04:02:10;;;;;;;6.87;2.53;;;;;;;14.93;100.00;100896.34;5232450;28;20538;-72
2023/08/26 04:04:41;;;;;;;6.70;2.70;;;;;;;15.08;100.00;100888.19;5215350;28;20120;-72
2023/08/26 04:07:13;;;;;;;11.80;3.30;;;;;;;15.10;100.00;100894.16;5231298;28;20084;-72
2023/08/26 04:09:44;;;;;;;6.63;2.30;;;;;;;15.17;100.00;100902.47;5234056;28;20381;-72
2023/08/26 04:12:15;;;;;;;7.80;2.87;;;;;;;15.13;100.00;100904.50;5233733;28;20479;-72
2023/08/26 04:14:47;;;;;;;9.20;4.27;;;;;;;15.04;100.00;100899.94;5216217;28;20045;-72
2023/08/26 04:17:18;;;;;;;11.30;3.80;;;;;;;14.87;100.00;100904.75;5215357;28;20592;-72
2023/08/26 04:19:49;;;;;;;12.77;5.33;;;;;;;14.97;100.00;100903.06;5232718;28;20102;-72
2023/08/26 04:22:20;;;;;;;13.87;5.30;;;;;;;15.01;100.00;100906.28;5233181;28;20030;-72
2023/08/26 04:24:52;;;;;;;15.43;6.40;;;;;;;15.03;100.00;100914.09;5233685;28;20472;-72
2023/08/26 04:27:23;;;;;;;12.00;5.67;;;;;;;15.06;100.00;100924.41;5233630;28;20798;-72
2023/08/26 04:29:54;;;;;;;11.83;5.03;;;;;;;15.10;100.00;100923.19;5233518;28;20021;-72
2023/08/26 04:32:26;;;;;;;10.97;5.03;;;;;;;15.06;100.00;100932.31;5231992;28;20105;-72
2023/08/26 04:34:58;;;;;;;11.27;5.03;;;;;;;14.92;100.00;100922.84;5213303;28;20079;-72
2023/08/26 04:37:29;;;;;;;14.27;4.87;;;;;;;14.92;100.00;100925.47;5231439;28;20091;-72
2023/08/26 04:40:07;;;;;;;9.40;4.20;;;;;;;14.84;100.00;100929.53;5212640;28;20021;-73
2023/08/26 04:42:39;;;;;;;10.80;4.17;;;;;;;14.95;100.00;100933.97;5231512;28;20113;-72
2023/08/26 04:45:14;;;;;;;13.10;4.30;;;;;;;14.78;100.00;100931.78;5231899;28;20078;-72
2023/08/26 04:47:46;;;;;;;11.00;4.53;;;;;;;14.87;100.00;100933.75;5230927;28;20048;-72
2023/08/26 04:50:17;;;;;;;10.70;3.00;;;;;;;14.75;100.00;100931.03;5230013;28;20064;-73
2023/08/26 04:52:49;;;;;;;8.50;3.50;;;;;;;14.86;100.00;100937.31;5231727;28;20574;-72
2023/08/26 04:55:20;;;;;;;6.93;3.10;;;;;;;14.72;100.00;100941.81;5230693;28;20475;-72
2023/08/26 04:57:52;;;;;;;5.27;2.80;;;;;;;14.52;100.00;100935.44;5231667;28;20049;-71
2023/08/26 05:00:24;;;;;;;8.03;2.37;;;;;;;14.74;100.00;100946.97;5212763;28;20373;-72
2023/08/26 05:02:55;;;;;;;8.50;2.30;;;;;;;14.78;100.00;100953.72;5231454;28;20040;-72
2023/08/26 05:05:27;;;;;;;8.60;2.70;;;;;;;14.68;100.00;100950.91;5212282;28;20063;-72
2023/08/26 05:07:58;;;;;;;7.57;2.50;;;;;;;14.58;100.00;100956.06;5231576;28;20032;-72
2023/08/26 05:10:30;;;;;;;8.87;2.37;;;;;;;14.71;100.00;100958.59;5230271;28;20420;-72
2023/08/26 05:13:01;;;;;;;4.30;2.57;;;;;;;14.63;100.00;100966.22;5231266;28;20079;-72
2023/08/26 05:15:33;;;;;;;8.27;2.47;;;;;;;14.66;100.00;100955.44;5213363;28;20475;-71
2023/08/26 05:18:04;;;;;;;6.57;2.70;;;;;;;14.67;100.00;100949.25;5211584;28;20036;-72
2023/08/26 05:20:36;;;;;;;6.43;2.40;;;;;;;14.69;100.00;100952.63;5231074;28;20476;-72
2023/08/26 05:23:07;;;;;;;3.77;2.00;;;;;;;14.64;100.00;100949.47;5212864;28;20044;-72
2023/08/26 05:25:39;;;;;;;7.27;2.30;;;;;;;14.66;100.00;100954.63;5222152;28;20463;-72
2023/08/26 05:28:10;;;;;;;6.20;2.47;;;;;;;14.68;100.00;100958.81;5235065;28;20061;-72
2023/08/26 05:30:42;;;;;;;5.33;2.90;;;;;;;14.60;100.00;100943.59;5213037;28;20419;-72
2023/08/26 05:33:13;;;;;;;8.20;2.40;;;;;;;14.69;100.00;100957.03;5229065;28;20457;-72
2023/08/26 05:35:45;;;;;;;5.80;2.87;;;;;;;14.68;100.00;100955.38;5230975;28;20034;-72
2023/08/26 05:38:16;;;;;;;10.80;3.07;;;;;;;14.61;100.00;100965.50;5230677;28;20053;-72
2023/08/26 05:40:47;;;;;;;9.07;4.27;;;;;;;14.63;100.00;100956.53;5212873;28;20037;-72
2023/08/26 05:43:19;;;;;;;7.87;3.03;;;;;;;14.71;100.00;100950.69;5230215;28;20056;-73
2023/08/26 05:45:50;;;;;;;11.73;4.30;;;;;;;14.73;100.00;100955.84;5230450;28;20041;-73
2023/08/26 05:48:21;;;;;;;10.90;3.90;;;;;;;14.75;100.00;100943.38;5210644;28;20041;-73
2023/08/26 05:50:52;;;;;;;9.47;3.33;;;;;;;14.76;100.00;100951.19;5230610;28;20042;-72
2023/08/26 05:53:25;;;;;;;10.00;3.70;;;;;;;14.79;100.00;100946.63;5230314;28;20037;-73
2023/08/26 05:55:56;;;;;;;9.50;3.17;;;;;;;14.79;100.00;100939.56;5229116;28;20040;-72
2023/08/26 05:58:27;;;;;;;10.40;3.90;;;;;;;14.86;100.00;100942.59;5230281;28;20531;-72
2023/08/26 06:00:59;;;;;;;12.50;4.07;;;;;;;14.74;100.00;100947.81;5230148;28;20080;-72
2023/08/26 06:03:30;;;;;;;9.77;3.63;;;;;;;14.78;100.00;100950.22;5228832;28;20109;-73
2023/08/26 06:06:03;;;;;;;9.80;4.00;;;;;;;14.85;100.00;100948.84;5230270;28;20053;-73
2023/08/26 06:08:34;;;;;;;8.37;3.93;;;;;;;14.78;100.00;100942.31;5230609;28;20025;-72
2023/08/26 06:11:06;;;;;;;12.20;4.57;;;;;;;14.82;100.00;100941.16;5231705;28;20053;-72
2023/08/26 06:13:37;;;;;;;12.27;4.30;;;;;;;14.86;100.00;100942.59;5232297;28;20030;-73
2023/08/26 06:16:08;;;;;;;9.93;4.30;;;;;;;14.93;100.00;100933.25;5230518;28;20032;-73
2023/08/26 06:18:40;;;;;;;10.47;3.60;;;;;;;14.94;100.00;100929.66;5215700;28;20021;-73
2023/08/26 06:21:11;;;;;;;7.90;3.63;;;;;;;14.94;100.00;100929.66;5233836;28;20443;-72
2023/08/26 06:23:42;;;;;;;8.83;3.60;;;;;;;14.95;100.00;100931.34;5234354;28;20226;-72
2023/08/26 06:26:14;;;;;;;8.97;4.17;;;;;;;15.06;100.00;100941.03;5216421;28;20110;-72
2023/08/26 06:28:45;;;;;;;9.13;3.87;;;;;;;15.09;100.00;100937.34;5215890;28;20025;-72
2023/08/26 06:31:16;;;;;;;11.57;3.43;;;;;;;15.14;100.00;100942.25;5232065;28;20050;-73
2023/08/26 06:33:48;;;;;;;9.20;3.80;;;;;;;15.16;100.00;100940.34;5230227;28;20220;-72
2023/08/26 06:36:19;;;;;;;7.33;3.70;;;;;;;15.17;100.00;100940.22;5226180;28;20040;-72
2023/08/26 06:38:50;;;;;;;8.67;4.10;;;;;;;15.16;100.00;100938.53;5232655;28;20071;-72
2023/08/26 06:41:22;;;;;;;7.63;3.57;;;;;;;15.21;100.00;100946.09;5221943;28;20081;-72
2023/08/26 06:43:53;;;;;;;7.33;3.40;;;;;;;15.26;100.00;100948.34;5229385;28;20040;-72
2023/08/26 06:46:24;;;;;;;9.80;3.10;;;;;;;15.21;100.00;100931.13;5234091;28;20028;-72
2023/08/26 06:48:55;;;;;;;9.47;3.57;;;;;;;15.30;100.00;100936.63;5222351;28;20345;-72
2023/08/26 06:51:27;;;;;;;6.67;2.93;;;;;;;15.37;100.00;100929.91;5228009;28;20044;-72
2023/08/26 06:53:58;;;;;;;8.20;3.40;;;;;;;15.29;100.00;100911.19;5215894;28;20017;-73
2023/08/26 06:56:30;;;;;;;8.60;2.77;;;;;;;15.45;100.00;100924.00;5233264;28;20104;-72
2023/08/26 06:59:01;;;;;;;12.23;4.37;;;;;;;15.38;100.00;100926.28;5232880;28;20022;-73
2023/08/26 07:01:34;;;;;;;10.13;3.40;;;;;;;15.52;100.00;100937.53;5231983;28;20031;-72
2023/08/26 07:04:06;;;;;;;6.47;2.60;;;;;;;15.47;100.00;100933.47;5231758;28;20117;-72
2023/08/26 07:06:38;;;;;;;9.50;3.23;;;;;;;15.57;100.00;100930.94;5228774;28;20021;-72
2023/08/26 07:09:10;;;;;;;6.97;3.27;;;;;;;15.64;100.00;100933.09;5233231;28;20055;-72
2023/08/26 07:11:42;;;;;;;8.17;3.20;;;;;;;15.71;100.00;100936.91;5232924;28;20033;-72
2023/08/26 07:14:13;;;;;;;8.80;2.93;;;;;;;15.79;100.00;100931.03;5232679;28;20033;-73
2023/08/26 07:16:44;;;;;;;6.70;2.60;;;;;;;15.82;100.00;100934.25;5228079;28;20032;-72
2023/08/26 07:19:15;;;;;;;8.53;3.10;;;;;;;15.92;100.00;100928.19;5225415;28;20484;-73
2023/08/26 07:21:47;;;;;;;7.13;2.70;;;;;;;16.05;100.00;100941.28;5220530;28;20567;-72
2023/08/26 07:24:19;;;;;;;7.63;3.20;;;;;;;16.21;100.00;100939.06;5232853;28;20025;-73
2023/08/26 07:26:50;;;;;;;7.07;2.43;;;;;;;16.37;100.00;100937.78;5217112;28;20060;-71
2023/08/26 07:29:22;;;;;;;6.93;2.60;;;;;;;16.53;100.00;100936.53;5223302;28;20116;-73
2023/08/26 07:31:53;;;;;;;6.80;2.67;;;;;;;16.71;100.00;100938.56;5202288;28;20486;-72
2023/08/26 07:34:24;;;;;;;9.97;3.10;;;;;;;17.00;100.00;100959.06;5232641;28;20460;-74
2023/08/26 07:36:57;;;;;;;8.60;2.67;;;;;;;17.26;100.00;100948.88;5216400;28;20048;-73
2023/08/26 07:39:29;;;;;;;8.00;3.00;;;;;;;17.57;100.00;100934.78;5234388;28;20388;-73
2023/08/26 07:42:00;;;;;;;5.27;2.20;;;;;;;17.92;100.00;100942.34;5232941;28;20022;-74
2023/08/26 07:44:32;;;;;;;6.63;2.23;;;;;;;18.53;100.00;100940.41;5234017;28;20041;-72
2023/08/26 07:47:03;;;;;;;6.43;2.00;;;;;;;19.02;100.00;100936.78;5234130;28;20041;-72
2023/08/26 07:49:34;;;;;;;9.87;2.20;;;;;;;19.43;100.00;100940.94;5229815;28;20093;-73
2023/08/26 07:52:05;;;;;;;7.38;2.38;;;;;;;19.80;100.00;100941.81;5229312;28;20021;-72
2023/08/26 07:54:37;;;;;;;7.05;1.90;;;;;;;20.43;100.00;100953.38;5233481;28;20869;-71
2023/08/26 07:57:08;;;;;;;5.75;1.73;;;;;;;20.97;100.00;100948.91;5229782;28;20124;-72
2023/08/26 07:59:40;;;;;;;4.38;1.58;;;;;;;21.20;100.00;100956.34;5218805;28;20524;-73
2023/08/26 08:02:11;;;;;;;7.15;1.80;;;;;;;21.62;100.00;100964.47;5233019;28;20030;-72
2023/08/26 08:04:42;;;;;;;5.78;1.85;;;;;;;21.95;100.00;100956.59;5231535;28;20232;-72
2023/08/26 08:07:13;;;;;;;3.67;1.80;;;;;;;22.69;100.00;100949.56;5231068;28;20051;-72
2023/08/26 08:09:45;;;;;;;5.57;1.98;;;;;;;23.58;100.00;100951.44;5231217;28;20038;-74
2023/08/26 08:12:16;;;;;;;5.57;1.60;;;;;;;24.15;100.00;100946.66;5226302;28;20022;-75
2023/08/26 08:14:47;;;;;;;6.47;1.60;;;;;;;24.32;100.00;100944.72;5214596;28;20025;-72
2023/08/26 08:17:19;;;;;;;5.22;1.50;;;;;;;24.60;100.00;100946.78;5231906;28;20033;-73
2023/08/26 08:19:50;;;;;;;4.78;1.60;;;;;;;25.21;100.00;100946.78;5230940;28;20107;-73
2023/08/26 08:22:37;;;;;;;5.03;1.67;;;;;;;25.70;100.00;100939.94;5229498;28;20503;-74
2023/08/26 08:25:09;;;;;;;4.35;1.30;;;;;;;25.97;100.00;100928.66;5235347;28;20009;-73
2023/08/26 08:27:41;;;;;;;3.72;1.35;;;;;;;26.08;100.00;100943.38;5237904;28;20468;-73
2023/08/26 08:30:12;;;;;;;5.00;1.75;;;;;;;26.16;100.00;100940.56;5225885;28;20025;-73
2023/08/26 08:32:44;;;;;;;4.13;1.58;;;;;;;26.90;100.00;100944.75;5228713;28;20590;-73
2023/08/26 08:35:15;;;;;;;5.07;1.00;;;;;;;27.33;100.00;100940.22;5229770;28;20017;-73
2023/08/26 08:37:47;;;;;;;6.82;1.98;;;;;;;27.57;90.47;100929.94;5231598;28;20037;-73
2023/08/26 08:40:18;;;;;;;5.88;1.98;;;;;;;27.77;75.80;100930.03;5213155;28;20442;-73
2023/08/26 08:42:50;;;;;;;5.10;2.15;;;;;;;27.70;58.33;100939.94;5231581;28;20416;-73
2023/08/26 08:45:21;;;;;;;5.53;1.20;;;;;;;28.39;53.76;100945.13;5230420;28;20075;-74
2023/08/26 08:47:54;;;;;;;5.20;1.08;;;;;;;28.97;53.47;100940.84;5212088;28;20468;-73
2023/08/26 08:50:26;;;;;;;4.03;1.17;;;;;;;28.72;46.52;100946.94;5212085;28;20048;-73
2023/08/26 08:52:58;;;;;;;3.55;1.30;;;;;;;28.92;43.13;100956.81;5240887;28;20029;-73
2023/08/26 08:55:29;;;;;;;4.22;1.20;;;;;;;28.95;43.30;100953.72;5226645;28;20033;-74
2023/08/26 08:58:02;;;;;;;5.18;1.20;;;;;;;29.28;42.25;100960.03;5212073;28;20463;-74
2023/08/26 09:00:33;;;;;;;4.07;1.20;;;;;;;28.79;41.67;100964.94;5234422;28;20047;-73
2023/08/26 09:03:07;;;;;;;2.83;1.20;;;;;;;29.11;42.29;100965.09;5241117;28;20021;-74
2023/08/26 09:05:39;;;;;;;4.72;1.45;;;;;;;29.23;44.03;100968.78;5230176;28;20025;-73
2023/08/26 09:08:11;;;;;;;5.07;1.20;;;;;;;28.91;42.46;100967.81;5230615;28;20079;-73
2023/08/26 09:10:45;;;;;;;3.38;1.10;;;;;;;28.82;42.32;100967.22;5212763;28;20044;-73
2023/08/26 09:13:16;;;;;;;4.82;1.30;;;;;;;28.59;41.54;100971.22;5222289;28;20038;-73
2023/08/26 09:15:48;;;;;;;6.90;1.60;;;;;;;28.69;41.86;100968.09;5230158;28;20059;-73
2023/08/26 09:18:19;;;;;;;5.20;1.67;;;;;;;27.83;44.96;100977.63;5229221;28;20119;-73
2023/08/26 09:20:51;;;;;;;4.03;1.30;;;;;;;28.33;42.01;100970.19;5230047;28;20022;-73
2023/08/26 09:23:22;;;;;;;5.40;1.20;;;;;;;28.20;41.66;100966.47;5230734;28;20026;-73
2023/08/26 09:25:56;;;;;;;4.20;1.00;;;;;;;28.04;42.06;100967.69;5230762;28;20022;-73
2023/08/26 09:28:27;;;;;;;;;;;;;;;29.66;41.59;100977.28;5230663;28;20056;-73
2023/08/26 09:31:06;;;;;;;4.68;1.20;;;;;;;28.50;41.69;100976.81;5231186;28;19952;-72
2023/08/26 09:33:38;;;;;;;3.67;1.20;;;;;;;27.85;41.91;100983.63;5229875;28;20076;-72
2023/08/26 09:36:09;;;;;;;4.00;1.00;;;;;;;27.33;41.36;100977.88;5230218;28;20450;-73
2023/08/26 09:38:47;;;;;;;3.15;1.00;;;;;;;27.16;42.80;100979.03;5217547;28;20044;-74
2023/08/26 09:41:21;;;;;;;4.85;1.17;;;;;;;26.80;43.28;100988.97;5238510;28;20029;-74
2023/08/26 09:43:52;;;;;;;3.17;1.25;;;;;;;26.61;45.21;100984.28;5229779;28;20033;-73
2023/08/26 09:46:24;;;;;;;2.85;1.02;;;;;;;27.05;43.70;100980.44;5233449;28;20036;-74
2023/08/26 09:48:57;;;;;;;3.40;1.23;;;;;;;27.48;43.72;100983.09;5214757;28;20025;-73
2023/08/26 09:51:29;;;;;;;2.57;1.20;;;;;;;27.67;43.01;100984.16;5234557;28;20025;-72
2023/08/26 09:54:01;;;;;;;4.07;0.98;;;;;;;28.25;43.28;100980.13;5216112;28;20025;-73
2023/08/26 09:56:32;;;;;;;4.70;1.50;;;;;;;28.36;41.45;100969.81;5234183;28;20041;-73
2023/08/26 09:59:03;;;;;;;3.92;1.02;;;;;;;28.35;42.98;100973.50;5215826;28;20072;-74
2023/08/26 10:01:37;;;;;;;4.70;1.20;;;;;;;28.90;42.84;100980.47;5236088;28;20463;-73
2023/08/26 10:04:10;;;;;;;6.90;1.15;;;;;;;28.74;40.69;100985.28;5234822;28;20383;-73
2023/08/26 10:06:44;;;;;;;4.82;1.10;;;;;;;28.56;41.50;100982.41;5235125;28;20036;-74
2023/08/26 10:09:31;;;;;;;3.88;1.38;;;;;;;28.79;40.44;100989.19;5236140;28;20387;-72
2023/08/26 10:12:10;;;;;;;3.85;1.25;;;;;;;28.43;41.62;100986.78;5223307;28;20080;-70
2023/08/26 10:14:45;;;;;;;4.13;1.13;;;;;;;28.42;40.93;100978.91;5230030;28;20025;-71
2023/08/26 10:17:20;;;;;;;4.80;1.40;;;;;;;28.27;41.16;100982.63;5210287;28;20060;-71
2023/08/26 10:19:52;;;;;;;4.18;1.40;;;;;;;28.02;41.56;100986.75;5230123;28;20509;-70
2023/08/26 10:22:24;;;;;;;6.40;1.38;;;;;;;28.15;40.85;100995.88;5228703;28;20030;-71
2023/08/26 10:24:56;;;;;;;2.95;1.08;;;;;;;27.53;42.28;100986.84;5230444;28;20026;-70
2023/08/26 10:27:27;;;;;;;8.35;1.52;;;;;;;27.66;42.12;100977.97;5231768;28;20353;-71
2023/08/26 10:29:59;;;;;;;3.53;1.13;;;;;;;28.41;42.34;100983.47;5232381;28;20622;-71
2023/08/26 10:32:30;;;;;;;3.65;0.90;;;;;;;28.49;40.68;100980.56;5213502;28;20032;-73
2023/08/26 10:35:13;;;;;;;4.82;1.55;;;;;;;29.30;41.00;100978.69;5224093;28;20116;-71
2023/08/26 10:37:45;;;;;;;3.63;1.20;;;;;;;28.64;40.60;100987.59;5224337;28;20087;-71
2023/08/26 10:40:17;;;;;;;3.22;1.10;;;;;;;29.79;39.20;100989.88;5227428;28;20064;-72
2023/08/26 10:43:08;;;;;;;2.47;0.70;;;;;;;30.19;38.60;100985.22;5222912;28;20068;-72
2023/08/26 10:45:46;;;;;;;2.00;0.70;;;;;;;30.01;37.28;100988.66;5216139;28;20693;-72
2023/08/26 10:48:18;;;;;;;4.28;1.02;;;;;;;30.32;36.66;100978.88;5232875;28;20112;-72
2023/08/26 10:51:00;;;;;;;2.17;0.80;;;;;;;29.88;37.75;100985.03;5234445;28;21085;-73
2023/08/26 10:53:43;;;;;;;2.75;0.88;;;;;;;29.88;38.55;100986.91;5234253;28;20397;-70
2023/08/26 10:56:18;;;;;;;2.15;0.90;;;;;;;30.29;37.08;100979.31;5234427;28;20033;-70
2023/08/26 10:58:49;;;;;;;3.92;1.20;;;;;;;29.98;36.79;100970.22;5235156;28;20075;-71
2023/08/26 11:01:21;;;;;;;1.92;1.00;;;;;;;29.81;37.32;100978.84;5226538;28;20030;-72
2023/08/26 11:03:52;;;;;;;1.75;0.90;;;;;;;28.82;38.07;100975.28;5219433;28;20559;-72
2023/08/26 11:06:24;;;;;;;3.00;1.10;;;;;;;29.23;37.66;100967.94;5221603;28;20045;-72
2023/08/26 11:08:57;;;;;;;3.95;1.00;;;;;;;29.39;38.74;100963.94;5219068;28;20492;-72
2023/08/26 11:11:28;;;;;;;5.73;1.20;;;;;;;29.41;37.64;100964.50;5228173;28;20045;-70
2023/08/26 11:13:59;;;;;;;4.13;1.50;;;;;;;29.56;37.07;100968.81;5230647;28;20033;-71
2023/08/26 11:16:32;;;;;;;2.42;1.00;;;;;;;29.50;35.92;100962.38;5228169;28;20108;-72
2023/08/26 11:19:04;;;;;;;4.15;0.95;;;;;;;29.21;36.81;100960.06;5225985;28;20396;-71
2023/08/26 11:21:37;;;;;;;5.82;1.25;;;;;;;29.21;37.22;100954.69;5229274;28;20036;-71
2023/08/26 11:24:09;;;;;;;5.63;1.17;;;;;;;29.01;37.56;100953.94;5215169;28;20033;-71
2023/08/26 11:26:47;;;;;;;3.40;0.90;;;;;;;28.91;37.67;100957.88;5220254;28;20029;-71
2023/08/26 11:29:18;;;;;;;2.55;1.38;;;;;;;28.46;37.49;100956.75;5215181;28;20488;-71
2023/08/26 11:31:49;;;;;;;1.95;1.00;;;;;;;28.35;37.77;100952.81;5232908;28;20128;-72
2023/08/26 11:34:24;;;;;;;2.35;1.00;;;;;;;28.48;38.62;100954.66;5231440;28;20029;-71
2023/08/26 11:36:55;;;;;;;3.28;1.08;;;;;;;28.35;37.94;100950.13;5232581;28;20042;-72
2023/08/26 11:39:31;;;;;;;3.28;0.95;;;;;;;28.23;37.69;100947.19;5232957;28;20025;-71